Globe Village, Massachusetts
Current Conditions -  °F | °C
As of 8:25 PM on Wednesday 26 Nov 2014 (Local Time) from KORH Reporting Station
Haze Haze  
Wind Chill: 19°   Ceiling: 500
Heat Index: 31°   Visibility: 1.7mi
Dew Point: 30°   Wind: 20mph
Humidity: 96%   Direction: 20°NNE
Pressure: 29.72"   Gusts: 31mph
Location:  42.0598°N, 72.0339°W
Report Text: KORH 270125Z AUTO 02017G27KT 1 3/4SM UP BR BKN005 OVC014 M01/M01 A2972 RMK AO2 PK WND 02031/0058 UPE0058B19FZRAB0058E19 LAST AUGMENTED OBS P0008 I1000 T10061011
Loading
Personal Weather Stations






























Interactive Weather Map New forecast layout! Learn more

10-Day Weather Forecast

Advertisements
Track Severe Weather on mobile